createdAt,value
2018-01-12T00:02:19.399Z,99.90
2018-01-12T00:04:46.943Z,99.90
2018-01-12T00:07:14.510Z,99.90
2018-01-12T00:09:42.061Z,99.90
2018-01-12T00:12:10.391Z,99.90
2018-01-12T00:14:37.947Z,99.90
2018-01-12T00:17:06.288Z,99.90
2018-01-12T00:19:33.827Z,99.90
2018-01-12T00:22:01.415Z,99.90
2018-01-12T00:24:28.954Z,99.90
2018-01-12T00:26:56.503Z,99.90
2018-01-12T00:29:24.063Z,99.90
2018-01-12T00:31:51.616Z,99.90
2018-01-12T00:34:19.174Z,99.90
2018-01-12T00:36:46.716Z,99.90
2018-01-12T00:39:14.276Z,99.90
2018-01-12T00:41:41.819Z,99.90
2018-01-12T00:44:09.384Z,99.90
2018-01-12T00:46:37.691Z,99.90
2018-01-12T00:49:05.257Z,99.90
2018-01-12T00:51:33.567Z,99.90
2018-01-12T00:54:01.919Z,99.90
2018-01-12T00:56:29.459Z,99.90
2018-01-12T00:58:57.791Z,99.90
2018-01-12T01:01:25.335Z,99.90
2018-01-12T01:03:53.659Z,99.90
2018-01-12T01:06:21.204Z,99.90
2018-01-12T01:08:48.771Z,99.90
2018-01-12T01:11:16.324Z,99.90
2018-01-12T01:13:43.868Z,99.90
2018-01-12T01:16:12.195Z,99.90
2018-01-12T01:18:39.771Z,99.90
2018-01-12T01:21:07.335Z,99.90
2018-01-12T01:23:34.879Z,99.90
2018-01-12T01:26:02.439Z,99.90
2018-01-12T01:28:29.982Z,99.90
2018-01-12T01:30:57.552Z,99.90
2018-01-12T01:33:25.091Z,99.90
2018-01-12T01:35:52.655Z,99.90
2018-01-12T01:38:21.017Z,99.90
2018-01-12T01:40:48.578Z,99.90
2018-01-12T01:43:16.140Z,99.90
2018-01-12T01:45:43.723Z,99.90
2018-01-12T01:48:11.267Z,99.90
2018-01-12T01:50:38.807Z,99.90
2018-01-12T01:53:06.380Z,99.90
2018-01-12T01:55:33.931Z,99.90
2018-01-12T01:58:02.262Z,99.90
2018-01-12T02:00:29.809Z,99.90
2018-01-12T02:02:57.375Z,99.90
2018-01-12T02:05:24.915Z,99.90
2018-01-12T02:07:52.474Z,99.90
2018-01-12T02:10:20.771Z,99.90
2018-01-12T02:12:49.101Z,99.90
2018-01-12T02:15:16.672Z,99.90
2018-01-12T02:17:44.239Z,99.90
2018-01-12T02:20:12.548Z,99.90
2018-01-12T02:22:40.875Z,99.90
2018-01-12T02:25:08.411Z,99.90
2018-01-12T02:27:35.977Z,99.90
2018-01-12T02:30:03.535Z,99.90
2018-01-12T02:32:31.081Z,99.90
2018-01-12T02:35:07.829Z,99.90
2018-01-12T02:37:35.405Z,99.90
2018-01-12T02:40:02.985Z,99.90
2018-01-12T02:42:30.537Z,99.90
2018-01-12T02:44:58.877Z,99.90
2018-01-12T02:47:26.425Z,99.90
2018-01-12T02:49:54.792Z,99.90
2018-01-12T02:52:22.348Z,99.90
2018-01-12T02:54:49.922Z,99.90
2018-01-12T02:57:17.465Z,99.90
2018-01-12T02:59:45.796Z,99.90
2018-01-12T03:02:13.342Z,99.90
2018-01-12T03:04:40.941Z,99.90
2018-01-12T03:07:09.257Z,99.90
2018-01-12T03:09:37.592Z,99.90
2018-01-12T03:12:05.166Z,99.90
2018-01-12T03:14:32.732Z,99.90
2018-01-12T03:17:00.284Z,99.90
2018-01-12T03:19:27.837Z,99.90
2018-01-12T03:21:55.417Z,99.90
2018-01-12T03:24:22.974Z,99.90
2018-01-12T03:26:50.554Z,99.90
2018-01-12T03:29:18.104Z,99.90
2018-01-12T03:31:45.685Z,99.90
2018-01-12T03:34:13.231Z,99.90
2018-01-12T03:36:40.825Z,99.90
2018-01-12T03:39:08.369Z,99.90
2018-01-12T03:41:36.698Z,99.90
2018-01-12T03:44:04.255Z,99.90
2018-01-12T03:46:32.598Z,99.90
2018-01-12T03:49:00.182Z,99.90
2018-01-12T03:51:27.751Z,99.90
2018-01-12T03:53:55.310Z,99.90
2018-01-12T03:56:22.944Z,99.90
2018-01-12T03:58:50.497Z,99.90
2018-01-12T04:01:18.057Z,99.90
2018-01-12T04:03:46.365Z,99.90
2018-01-12T04:06:13.952Z,99.90
2018-01-12T04:08:41.522Z,99.90
2018-01-12T04:11:09.845Z,99.90
2018-01-12T04:13:37.418Z,99.90
2018-01-12T04:16:04.974Z,99.90
2018-01-12T04:18:32.552Z,99.90
2018-01-12T04:21:00.108Z,99.90
2018-01-12T04:23:27.713Z,99.60
2018-01-12T04:25:55.269Z,99.10
2018-01-12T04:28:22.849Z,99.00
2018-01-12T04:30:50.400Z,98.90
2018-01-12T04:33:18.741Z,98.80
2018-01-12T04:35:46.297Z,98.80
2018-01-12T04:38:14.624Z,98.80
2018-01-12T04:40:42.170Z,98.80
2018-01-12T04:43:10.513Z,98.60
2018-01-12T04:45:38.061Z,98.90
2018-01-12T04:48:06.394Z,98.30
2018-01-12T04:50:33.945Z,98.40
2018-01-12T04:53:02.281Z,98.20
2018-01-12T04:55:31.862Z,98.30
2018-01-12T04:57:59.444Z,98.20
2018-01-12T05:00:27.785Z,98.20
2018-01-12T05:02:55.335Z,98.20
2018-01-12T05:05:22.906Z,98.20
2018-01-12T05:07:50.466Z,98.20
2018-01-12T05:10:18.034Z,98.30
2018-01-12T05:12:45.592Z,98.30
2018-01-12T05:15:14.006Z,98.40
2018-01-12T05:17:41.558Z,98.40
2018-01-12T05:20:09.141Z,98.40
2018-01-12T05:22:37.462Z,98.80
2018-01-12T05:25:06.383Z,98.50
2018-01-12T05:27:35.703Z,98.60
2018-01-12T05:30:04.040Z,98.60
2018-01-12T05:32:31.593Z,98.60
2018-01-12T05:34:59.938Z,98.60
2018-01-12T05:37:27.498Z,98.60
2018-01-12T05:39:55.054Z,98.60
2018-01-12T05:42:23.393Z,98.50
2018-01-12T05:44:50.945Z,98.50
2018-01-12T05:47:19.292Z,98.40
2018-01-12T05:49:46.840Z,98.40
2018-01-12T05:52:14.412Z,98.40
2018-01-12T05:54:42.746Z,98.40
2018-01-12T05:57:10.338Z,98.40
2018-01-12T05:59:37.889Z,98.40
2018-01-12T06:02:18.173Z,98.30
2018-01-12T06:04:58.126Z,98.30
2018-01-12T06:07:25.716Z,98.30
2018-01-12T06:09:53.269Z,98.30
2018-01-12T06:12:20.844Z,98.20
2018-01-12T06:14:48.403Z,98.20
2018-01-12T06:17:15.978Z,98.20
2018-01-12T06:19:43.529Z,98.20
2018-01-12T06:22:11.103Z,98.20
2018-01-12T06:24:39.445Z,98.30
2018-01-12T06:27:07.778Z,98.20
2018-01-12T06:29:35.331Z,98.20
2018-01-12T06:32:03.673Z,98.20
2018-01-12T06:34:31.241Z,98.10
2018-01-12T06:36:58.829Z,98.10
2018-01-12T06:39:26.379Z,98.10
2018-01-12T06:41:54.694Z,98.40
2018-01-12T06:44:22.265Z,98.10
2018-01-12T06:46:50.677Z,98.00
2018-01-12T06:49:19.009Z,98.00
2018-01-12T06:51:46.563Z,98.00
2018-01-12T06:54:14.192Z,98.00
2018-01-12T06:56:41.736Z,98.00
2018-01-12T06:59:09.305Z,98.00
2018-01-12T07:01:37.622Z,98.00
2018-01-12T07:04:05.194Z,98.00
2018-01-12T07:06:33.506Z,98.00
2018-01-12T07:09:01.100Z,98.00
2018-01-12T07:11:28.655Z,98.10
2018-01-12T07:13:56.244Z,98.10
2018-01-12T07:16:24.568Z,98.10
2018-01-12T07:18:52.136Z,98.10
2018-01-12T07:21:32.261Z,98.10
2018-01-12T07:23:59.832Z,98.10
2018-01-12T07:26:27.386Z,98.10
2018-01-12T07:28:55.728Z,98.20
2018-01-12T07:31:23.273Z,98.20
2018-01-12T07:33:51.605Z,98.20
2018-01-12T07:36:19.152Z,98.20
2018-01-12T07:38:47.462Z,98.20
2018-01-12T07:41:15.798Z,98.20
2018-01-12T07:43:44.113Z,98.20
2018-01-12T07:46:11.684Z,98.20
2018-01-12T07:48:39.236Z,98.20
2018-01-12T07:51:06.802Z,98.10
2018-01-12T07:53:34.350Z,98.20
2018-01-12T07:56:01.917Z,98.20
2018-01-12T07:58:29.470Z,98.10
2018-01-12T08:01:03.539Z,98.10
2018-01-12T08:03:31.086Z,98.30
2018-01-12T08:05:59.418Z,98.10
2018-01-12T08:08:26.968Z,98.00
2018-01-12T08:10:55.305Z,98.00
2018-01-12T08:13:22.848Z,97.90
2018-01-12T08:15:51.186Z,98.00
2018-01-12T08:18:18.737Z,98.00
2018-01-12T08:20:47.057Z,98.00
2018-01-12T08:23:14.617Z,98.00
2018-01-12T08:25:42.929Z,97.90
2018-01-12T08:28:11.260Z,97.90
2018-01-12T08:30:38.802Z,97.90
2018-01-12T08:33:06.381Z,97.90
2018-01-12T08:35:33.925Z,98.20
2018-01-12T08:38:01.492Z,97.80
2018-01-12T08:40:29.040Z,97.80
2018-01-12T08:42:56.612Z,97.80
2018-01-12T08:45:24.157Z,97.80
2018-01-12T08:47:51.732Z,97.80
2018-01-12T08:50:19.282Z,97.80
2018-01-12T08:52:47.601Z,97.80
2018-01-12T08:55:15.179Z,97.80
2018-01-12T08:57:42.733Z,97.80
2018-01-12T09:00:10.308Z,97.80
2018-01-12T09:02:37.856Z,97.80
2018-01-12T09:05:05.432Z,97.80
2018-01-12T09:07:32.977Z,97.70
2018-01-12T09:10:00.550Z,97.70
2018-01-12T09:12:28.092Z,97.70
2018-01-12T09:14:55.666Z,97.70
2018-01-12T09:17:32.862Z,97.80
2018-01-12T09:20:13.057Z,97.80
2018-01-12T09:22:46.492Z,97.80
2018-01-12T09:25:26.299Z,97.90
2018-01-12T09:27:53.847Z,97.80
2018-01-12T09:30:21.415Z,97.80
2018-01-12T09:32:49.889Z,97.90
2018-01-12T09:35:17.461Z,97.80
2018-01-12T09:37:45.040Z,97.80
2018-01-12T09:43:11.804Z,97.70
2018-01-12T09:45:39.369Z,97.70
2018-01-12T09:48:19.507Z,97.70
2018-01-12T09:50:47.078Z,97.60
2018-01-12T09:53:14.625Z,97.60
2018-01-12T09:55:42.948Z,97.60
2018-01-12T09:58:10.500Z,97.60
2018-01-12T10:00:46.528Z,97.60
2018-01-12T10:03:14.072Z,97.50
2018-01-12T10:05:41.639Z,97.50
2018-01-12T10:08:16.053Z,97.50
2018-01-12T10:10:43.629Z,97.60
2018-01-12T10:13:11.193Z,97.50
2018-01-12T10:15:38.741Z,97.40
2018-01-12T10:21:12.721Z,97.10
2018-01-12T10:23:40.277Z,97.00
2018-01-12T10:26:07.876Z,96.80
2018-01-12T10:28:35.421Z,96.70
2018-01-12T10:31:02.997Z,96.60
2018-01-12T10:33:32.099Z,96.60
2018-01-12T10:35:59.688Z,96.60
2018-01-12T10:38:28.030Z,96.30
2018-01-12T10:41:19.152Z,96.30
2018-01-12T10:43:46.701Z,96.40
2018-01-12T10:46:24.679Z,96.40
2018-01-12T10:48:56.019Z,96.40
2018-01-12T10:51:36.941Z,96.20
2018-01-12T10:54:04.506Z,96.20
2018-01-12T10:56:32.822Z,96.00
2018-01-12T10:59:00.432Z,96.00
2018-01-12T11:01:28.007Z,96.00
2018-01-12T11:03:55.569Z,96.00
2018-01-12T11:06:23.119Z,96.00
2018-01-12T11:08:50.684Z,96.00
2018-01-12T11:11:18.232Z,96.10
2018-01-12T11:13:45.805Z,96.10
2018-01-12T11:16:13.354Z,96.20
2018-01-12T11:18:40.921Z,95.90
2018-01-12T11:21:08.477Z,95.90
2018-01-12T11:23:36.024Z,95.90
2018-01-12T11:26:04.354Z,96.10
2018-01-12T11:28:31.898Z,95.80
2018-01-12T11:30:59.464Z,95.70
2018-01-12T11:33:27.013Z,95.60
2018-01-12T11:35:54.584Z,95.80
2018-01-12T11:38:22.133Z,95.90
2018-01-12T11:40:49.700Z,96.00
2018-01-12T11:43:17.252Z,95.90
2018-01-12T11:45:44.817Z,96.00
2018-01-12T11:48:12.369Z,96.00
2018-01-12T11:50:39.945Z,96.10
2018-01-12T11:53:07.486Z,96.10
2018-01-12T11:55:35.047Z,96.10
2018-01-12T11:58:03.361Z,96.30
2018-01-12T12:00:30.916Z,96.30
2018-01-12T12:02:59.263Z,96.30
2018-01-12T12:05:26.817Z,96.30
2018-01-12T12:07:55.149Z,96.20
2018-01-12T12:10:22.699Z,96.20
2018-01-12T12:12:51.037Z,96.30
2018-01-12T12:15:18.604Z,96.20
2018-01-12T12:17:46.180Z,96.20
2018-01-12T12:20:13.732Z,96.30
2018-01-12T12:22:41.299Z,96.40
2018-01-12T12:25:08.848Z,96.40
2018-01-12T12:27:36.422Z,96.60
2018-01-12T12:30:03.977Z,96.60
2018-01-12T12:32:31.550Z,96.50
2018-01-12T12:34:59.101Z,96.50
2018-01-12T12:37:26.672Z,96.50
2018-01-12T12:39:54.393Z,96.50
2018-01-12T12:42:21.956Z,96.60
2018-01-12T12:44:49.524Z,96.60
2018-01-12T12:47:17.081Z,96.70
2018-01-12T12:49:45.418Z,96.70
2018-01-12T12:52:12.966Z,96.70
2018-01-12T12:54:41.325Z,96.80
2018-01-12T12:57:08.885Z,96.80
2018-01-12T12:59:36.469Z,96.60
2018-01-12T13:02:04.018Z,96.60
2018-01-12T13:04:32.358Z,96.80
2018-01-12T13:06:59.910Z,96.80
2018-01-12T13:09:28.249Z,96.60
2018-01-12T13:11:55.809Z,96.60
2018-01-12T13:14:23.369Z,96.60
2018-01-12T13:16:51.697Z,96.60
2018-01-12T13:19:19.284Z,96.60
2018-01-12T13:21:46.873Z,96.70
2018-01-12T13:24:14.441Z,96.80
2018-01-12T13:26:42.756Z,96.80
2018-01-12T13:29:10.327Z,96.80
2018-01-12T13:31:38.643Z,96.80
2018-01-12T13:34:06.217Z,96.80
2018-01-12T13:36:33.765Z,96.80
2018-01-12T13:39:01.317Z,96.70
2018-01-12T13:41:28.908Z,96.80
2018-01-12T13:43:56.465Z,96.80
2018-01-12T13:46:24.037Z,96.80
2018-01-12T13:48:51.620Z,96.70
2018-01-12T13:51:19.192Z,96.70
2018-01-12T13:53:47.505Z,96.70
2018-01-12T13:56:15.077Z,96.70
2018-01-12T13:58:43.397Z,96.80
2018-01-12T14:01:10.980Z,96.80
2018-01-12T14:03:38.599Z,96.80
2018-01-12T14:06:07.016Z,96.80
2018-01-12T14:08:34.589Z,96.80
2018-01-12T14:11:02.193Z,96.90
2018-01-12T14:13:29.748Z,97.00
2018-01-12T14:15:57.325Z,97.00
2018-01-12T14:18:24.898Z,97.00
2018-01-12T14:20:52.527Z,97.00
2018-01-12T14:23:20.080Z,97.00
2018-01-12T14:25:47.647Z,97.10
2018-01-12T14:28:15.197Z,97.10
2018-01-12T14:30:42.748Z,97.20
2018-01-12T14:33:10.389Z,97.00
2018-01-12T14:35:38.706Z,97.10
2018-01-12T14:38:06.292Z,97.10
2018-01-12T14:40:33.844Z,97.20
2018-01-12T14:43:01.413Z,97.10
2018-01-12T14:45:28.964Z,97.10
2018-01-12T14:47:56.529Z,97.20
2018-01-12T14:50:24.085Z,97.20
2018-01-12T14:52:51.672Z,97.10
2018-01-12T14:55:19.990Z,97.10
2018-01-12T14:57:47.569Z,97.10
2018-01-12T15:00:15.117Z,97.10
2018-01-12T15:02:42.673Z,97.20
2018-01-12T15:05:11.009Z,97.30
2018-01-12T15:07:38.566Z,97.20
2018-01-12T15:10:06.129Z,97.30
2018-01-12T15:12:33.685Z,97.30
2018-01-12T15:15:02.022Z,97.30
2018-01-12T15:17:29.589Z,97.30
2018-01-12T15:19:57.164Z,97.30
2018-01-12T15:22:24.727Z,97.30
2018-01-12T15:24:53.066Z,97.60
2018-01-12T15:27:20.617Z,97.30
2018-01-12T15:29:48.952Z,97.20
2018-01-12T15:32:16.499Z,97.20
2018-01-12T15:34:44.837Z,97.30
2018-01-12T15:37:12.398Z,97.30
2018-01-12T15:39:40.731Z,97.30
2018-01-12T15:42:08.288Z,97.30
2018-01-12T15:44:36.628Z,97.30
2018-01-12T15:47:04.180Z,97.30
2018-01-12T15:49:31.731Z,97.40
2018-01-12T15:51:59.305Z,97.40
2018-01-12T15:54:26.860Z,97.40
2018-01-12T15:56:54.432Z,97.50
2018-01-12T15:59:21.992Z,97.50
2018-01-12T16:01:50.328Z,97.50
2018-01-12T16:04:17.871Z,97.50
2018-01-12T16:06:46.209Z,97.50
2018-01-12T16:09:14.153Z,97.50
2018-01-12T16:11:42.570Z,97.60
2018-01-12T16:14:10.893Z,97.60
2018-01-12T16:16:38.472Z,97.50
2018-01-12T16:19:06.046Z,97.50
2018-01-12T16:21:34.378Z,97.60
2018-01-12T16:24:01.942Z,97.50
2018-01-12T16:26:29.513Z,97.50
2018-01-12T16:28:57.853Z,97.50
2018-01-12T16:31:25.408Z,97.50
2018-01-12T16:33:52.990Z,97.50
2018-01-12T16:36:20.605Z,97.40
2018-01-12T16:38:48.181Z,97.40
2018-01-12T16:41:19.356Z,97.40
2018-01-12T16:43:47.107Z,97.30
2018-01-12T16:46:15.424Z,97.40
2018-01-12T16:48:42.993Z,97.40
2018-01-12T16:51:11.310Z,97.40
2018-01-12T16:53:38.885Z,97.40
2018-01-12T16:56:07.202Z,97.30
2018-01-12T16:58:34.777Z,97.30
2018-01-12T17:01:03.093Z,97.30
2018-01-12T17:03:30.682Z,97.30
2018-01-12T17:05:58.238Z,97.30
2018-01-12T17:08:26.590Z,97.40
2018-01-12T17:10:57.117Z,97.40
2018-01-12T17:13:25.628Z,97.60
2018-01-12T17:15:53.181Z,97.30
2018-01-12T17:18:21.517Z,97.30
2018-01-12T17:20:49.073Z,97.30
2018-01-12T17:23:17.384Z,97.30
2018-01-12T17:25:44.956Z,97.30
2018-01-12T17:28:13.273Z,96.90
2018-01-12T17:30:40.846Z,96.90
2018-01-12T17:33:09.161Z,97.00
2018-01-12T17:35:36.730Z,97.00
2018-01-12T17:38:05.054Z,97.00
2018-01-12T17:40:32.633Z,97.00
2018-01-12T17:43:00.225Z,97.10
2018-01-12T17:45:27.794Z,97.20
2018-01-12T17:47:55.345Z,97.30
2018-01-12T17:50:22.915Z,97.20
2018-01-12T17:52:50.472Z,97.20
2018-01-12T17:55:18.045Z,97.20
2018-01-12T17:57:45.597Z,97.20
2018-01-12T18:00:13.166Z,97.30
2018-01-12T18:02:40.716Z,97.30
2018-01-12T18:05:08.285Z,97.30
2018-01-12T18:07:35.837Z,97.30
2018-01-12T18:10:04.164Z,97.30
2018-01-12T18:12:31.742Z,97.20
2018-01-12T18:15:00.052Z,97.30
2018-01-12T18:17:27.632Z,97.30
2018-01-12T18:19:55.180Z,97.30
2018-01-12T18:22:22.749Z,97.20
2018-01-12T18:24:53.461Z,97.20
2018-01-12T18:27:21.035Z,97.30
2018-01-12T18:29:48.592Z,97.30
2018-01-12T18:32:16.165Z,97.20
2018-01-12T18:34:43.720Z,97.30
2018-01-12T18:37:11.303Z,97.30
2018-01-12T18:39:38.902Z,97.20
2018-01-12T18:42:06.479Z,97.20
2018-01-12T18:44:34.099Z,97.20
2018-01-12T18:47:01.684Z,97.20
2018-01-12T18:49:29.237Z,97.20
2018-01-12T18:51:57.578Z,97.00
2018-01-12T18:54:25.902Z,97.00
2018-01-12T18:56:54.242Z,97.00
2018-01-12T18:59:21.821Z,97.30
2018-01-12T19:01:49.380Z,97.00
2018-01-12T19:04:16.965Z,97.00
2018-01-12T19:06:44.575Z,96.90
2018-01-12T19:09:12.185Z,96.90
2018-01-12T19:11:39.737Z,96.90
2018-01-12T19:14:07.312Z,96.80
2018-01-12T19:16:34.862Z,96.70
2018-01-12T19:19:02.433Z,96.70
2018-01-12T19:21:29.990Z,96.60
2018-01-12T19:23:57.623Z,96.70
2018-01-12T19:26:28.948Z,96.60
2018-01-12T19:29:00.592Z,96.50
2018-01-12T19:31:28.355Z,96.80
2018-01-12T19:33:55.931Z,96.50
2018-01-12T19:36:23.485Z,96.50
2018-01-12T19:38:51.056Z,96.30
2018-01-12T19:41:18.609Z,96.30
2018-01-12T19:43:46.181Z,96.30
2018-01-12T19:46:14.501Z,96.30
2018-01-12T19:48:45.261Z,96.00
2018-01-12T19:51:14.001Z,96.00
2018-01-12T19:53:41.558Z,96.00
2018-01-12T19:56:09.128Z,96.10
2018-01-12T19:58:37.453Z,96.00
2018-01-12T20:01:05.020Z,96.00
2018-01-12T20:03:32.603Z,96.10
2018-01-12T20:06:00.932Z,96.20
2018-01-12T20:08:28.492Z,96.20
2018-01-12T20:10:56.828Z,96.20
2018-01-12T20:13:25.149Z,96.20
2018-01-12T20:15:56.309Z,96.20
2018-01-12T20:18:24.023Z,96.00
2018-01-12T20:20:54.263Z,95.80
2018-01-12T20:23:25.669Z,95.60
2018-01-12T20:25:53.240Z,95.50
2018-01-12T20:28:20.810Z,95.50
2018-01-12T20:30:48.389Z,95.50
2018-01-12T20:33:15.945Z,95.60
2018-01-12T20:35:44.370Z,95.60
2018-01-12T20:38:14.322Z,95.60
2018-01-12T20:40:44.959Z,95.70
2018-01-12T20:43:15.822Z,95.70
2018-01-12T20:45:48.548Z,95.50
2018-01-12T20:48:16.195Z,95.50
2018-01-12T20:50:43.744Z,95.50
2018-01-12T20:53:12.105Z,95.50
2018-01-12T20:55:39.669Z,95.80
2018-01-12T20:58:07.234Z,95.50
2018-01-12T21:00:36.272Z,95.40
2018-01-12T21:03:04.781Z,95.60
2018-01-12T21:05:32.354Z,95.60
2018-01-12T21:08:02.277Z,95.50
2018-01-12T21:10:30.243Z,95.30
2018-01-12T21:12:57.835Z,95.40
2018-01-12T21:15:25.396Z,95.30
2018-01-12T21:17:52.980Z,95.50
2018-01-12T21:20:20.532Z,95.30
2018-01-12T21:22:48.096Z,95.30
2018-01-12T21:25:16.408Z,95.60
2018-01-12T21:27:45.961Z,95.60
2018-01-12T21:30:13.796Z,95.70
2018-01-12T21:32:41.352Z,95.70
2018-01-12T21:35:08.921Z,95.80
2018-01-12T21:37:36.474Z,95.90
2018-01-12T21:40:06.864Z,96.00
2018-01-12T21:42:34.614Z,96.00
2018-01-12T21:45:03.472Z,96.10
2018-01-12T21:47:38.340Z,96.10
2018-01-12T21:50:13.572Z,96.10
2018-01-12T21:52:46.701Z,96.10
2018-01-12T21:55:14.689Z,96.10
2018-01-12T21:57:44.073Z,96.00
2018-01-12T22:00:12.416Z,95.80
2018-01-12T22:02:45.635Z,95.80
2018-01-12T22:05:20.962Z,95.70
2018-01-12T22:07:55.241Z,95.70
2018-01-12T22:10:28.724Z,95.40
2018-01-12T22:13:01.926Z,95.40
2018-01-12T22:15:36.033Z,95.40
2018-01-12T22:18:09.424Z,95.40
2018-01-12T22:20:40.054Z,95.30
2018-01-12T22:23:08.088Z,95.40
2018-01-12T22:25:35.657Z,95.40
2018-01-12T22:28:03.984Z,95.60
2018-01-12T22:30:31.566Z,95.50
2018-01-12T22:32:59.152Z,95.50
2018-01-12T22:35:26.720Z,95.50
2018-01-12T22:37:54.304Z,95.40
2018-01-12T22:40:22.082Z,95.40
2018-01-12T22:42:49.670Z,95.40
2018-01-12T22:45:18.000Z,95.30
2018-01-12T22:47:45.574Z,95.30
2018-01-12T22:50:13.185Z,95.30
2018-01-12T22:52:40.775Z,95.30
2018-01-12T22:55:08.329Z,95.40
2018-01-12T22:57:35.902Z,95.30
2018-01-12T23:00:03.462Z,95.30
2018-01-12T23:02:31.034Z,95.30
2018-01-12T23:04:58.588Z,95.30
2018-01-12T23:07:26.168Z,95.30
2018-01-12T23:09:53.739Z,95.40
2018-01-12T23:12:21.292Z,95.50
2018-01-12T23:14:49.627Z,95.50
2018-01-12T23:17:17.180Z,95.50
2018-01-12T23:19:45.521Z,95.60
2018-01-12T23:22:13.077Z,95.60
2018-01-12T23:24:40.667Z,95.70
2018-01-12T23:27:08.229Z,95.70
2018-01-12T23:29:36.581Z,95.80
2018-01-12T23:32:04.146Z,95.80
2018-01-12T23:34:31.724Z,95.70
2018-01-12T23:36:59.284Z,95.70
2018-01-12T23:39:26.860Z,95.60
2018-01-12T23:41:54.408Z,95.80
2018-01-12T23:44:21.991Z,95.90
2018-01-12T23:46:49.537Z,95.90
2018-01-12T23:49:17.876Z,95.70
2018-01-12T23:51:45.434Z,95.70
2018-01-12T23:54:13.027Z,95.70
2018-01-12T23:56:40.584Z,95.70
2018-01-12T23:59:08.148Z,95.80
